Benjamas Naree — 9V9405 — position and weather

sailwx.info

Track history (hours):
 
Tides and Currents Weather Stations Pressure Air Temp Water Temp Dewpoint Dewpoint Depression Visibility Wind Speed Wind Dir Waves Ship Positions

Benjamas Naree

Last reported at 2016-Aug-16 04:33 UTC. Time now 2016-Sep-28 08:39 UTC.
Position N 01°15' E 103°54'.
Warning: this ship's position is 43 days out of date.

Length 181 m; draft 6.5 m.

Type: Cargo ship. MMSI: 566377000.

Date/timePositionNaut miles runAvg speedWind from/ knotsBaromVisibWave heightAir tempDewpointWater temp
2016-Aug-16 04:33N 01°15' E 103°54'2 1.6
2016-Aug-16 03:30N 01°16' E 103°53'0 0.1
2016-Aug-16 02:33N 01°16' E 103°53'0 0.0
2016-Aug-16 01:27N 01°16' E 103°53'0 0.0
2016-Aug-16 00:33N 01°16' E 103°53'0 0.0
2016-Aug-15 23:33N 01°16' E 103°53'0 0.0
2016-Aug-15 22:27N 01°16' E 103°53'0 0.0
2016-Aug-15 21:21N 01°16' E 103°53'0 0.1
2016-Aug-15 20:33N 01°16' E 103°53'0 0.1
2016-Aug-15 19:24N 01°16' E 103°53'0 0.0
2016-Aug-15 18:30N 01°16' E 103°53'0 0.1
2016-Aug-15 17:21N 01°16' E 103°53'1 1.3
2016-Aug-15 16:33N 01°16' E 103°54'3 3.0
2016-Aug-15 15:34N 01°13' E 103°54'5 5.4
2016-Aug-15 14:33N 01°10' E 103°49'94 9.4
2016-Aug-15 04:33N 01°49' E 102°23'  
Track history (hours):
 
Tides and Currents Weather Stations Pressure Air Temp Water Temp Dewpoint Dewpoint Depression Visibility Wind Speed Wind Dir Waves Ship Positions

Benjamas Naree

Last reported at 2016-Aug-16 04:33 UTC. Time now 2016-Sep-28 08:39 UTC.
Position N 01°15' E 103°54'.
Warning: this ship's position is 43 days out of date.

Length 181 m; draft 6.5 m.

Type: Cargo ship. MMSI: 566377000.

Date/timePositionNaut miles runAvg speedWind from/ knotsBaromVisibWave heightAir tempDewpointWater temp
2016-Aug-16 04:33N 01°15' E 103°54'2 1.6
2016-Aug-16 03:30N 01°16' E 103°53'0 0.1
2016-Aug-16 02:33N 01°16' E 103°53'0 0.0
2016-Aug-16 01:27N 01°16' E 103°53'0 0.0
2016-Aug-16 00:33N 01°16' E 103°53'0 0.0
2016-Aug-15 23:33N 01°16' E 103°53'0 0.0
2016-Aug-15 22:27N 01°16' E 103°53'0 0.0
2016-Aug-15 21:21N 01°16' E 103°53'0 0.1
2016-Aug-15 20:33N 01°16' E 103°53'0 0.1
2016-Aug-15 19:24N 01°16' E 103°53'0 0.0
2016-Aug-15 18:30N 01°16' E 103°53'0 0.1
2016-Aug-15 17:21N 01°16' E 103°53'1 1.3
2016-Aug-15 16:33N 01°16' E 103°54'3 3.0
2016-Aug-15 15:34N 01°13' E 103°54'5 5.4
2016-Aug-15 14:33N 01°10' E 103°49'94 9.4
2016-Aug-15 04:33N 01°49' E 102°23'  

Dump ship's entire track history